sensor_id;sensor_type;location;lat;lon;timestamp;P1;durP1;ratioP1;P2;durP2;ratioP2
14611;SDS011;7392;52.078;11.650;2023-02-02T00:01:18;11.63;;;3.00;;
14611;SDS011;7392;52.078;11.650;2023-02-02T00:03:46;14.97;;;3.33;;
14611;SDS011;7392;52.078;11.650;2023-02-02T00:06:17;12.17;;;2.93;;
14611;SDS011;7392;52.078;11.650;2023-02-02T00:08:45;14.33;;;3.43;;
14611;SDS011;7392;52.078;11.650;2023-02-02T00:11:13;14.97;;;3.23;;
14611;SDS011;7392;52.078;11.650;2023-02-02T00:13:41;14.00;;;3.30;;
14611;SDS011;7392;52.078;11.650;2023-02-02T00:19:04;7.40;;;2.27;;
14611;SDS011;7392;52.078;11.650;2023-02-02T00:21:35;14.03;;;3.33;;
14611;SDS011;7392;52.078;11.650;2023-02-02T00:24:04;15.73;;;3.30;;
14611;SDS011;7392;52.078;11.650;2023-02-02T00:26:33;12.17;;;3.07;;
14611;SDS011;7392;52.078;11.650;2023-02-02T00:29:03;11.33;;;3.13;;
14611;SDS011;7392;52.078;11.650;2023-02-02T00:31:31;10.03;;;2.80;;
14611;SDS011;7392;52.078;11.650;2023-02-02T00:34:00;12.13;;;3.00;;
14611;SDS011;7392;52.078;11.650;2023-02-02T00:36:27;17.87;;;3.23;;
14611;SDS011;7392;52.078;11.650;2023-02-02T00:38:56;19.43;;;3.43;;
14611;SDS011;7392;52.078;11.650;2023-02-02T00:41:24;17.73;;;3.70;;
14611;SDS011;7392;52.078;11.650;2023-02-02T00:43:52;15.47;;;3.43;;
14611;SDS011;7392;52.078;11.650;2023-02-02T00:46:33;18.37;;;3.60;;
14611;SDS011;7392;52.078;11.650;2023-02-02T00:49:05;14.40;;;3.10;;
14611;SDS011;7392;52.078;11.650;2023-02-02T00:51:32;13.97;;;2.93;;
14611;SDS011;7392;52.078;11.650;2023-02-02T00:54:04;16.03;;;3.33;;
14611;SDS011;7392;52.078;11.650;2023-02-02T00:56:32;12.97;;;2.97;;
14611;SDS011;7392;52.078;11.650;2023-02-02T00:58:59;12.83;;;3.37;;
14611;SDS011;7392;52.078;11.650;2023-02-02T01:01:27;13.73;;;3.40;;
14611;SDS011;7392;52.078;11.650;2023-02-02T01:03:55;19.97;;;3.50;;
14611;SDS011;7392;52.078;11.650;2023-02-02T01:06:24;16.73;;;3.50;;
14611;SDS011;7392;52.078;11.650;2023-02-02T01:08:51;14.20;;;3.50;;
14611;SDS011;7392;52.078;11.650;2023-02-02T01:11:21;19.70;;;3.90;;
14611;SDS011;7392;52.078;11.650;2023-02-02T01:13:48;13.90;;;3.43;;
14611;SDS011;7392;52.078;11.650;2023-02-02T01:16:16;17.90;;;3.00;;
14611;SDS011;7392;52.078;11.650;2023-02-02T01:18:44;13.90;;;2.77;;
14611;SDS011;7392;52.078;11.650;2023-02-02T01:21:12;12.67;;;3.00;;
14611;SDS011;7392;52.078;11.650;2023-02-02T01:23:40;12.30;;;2.97;;
14611;SDS011;7392;52.078;11.650;2023-02-02T01:26:08;14.73;;;3.37;;
14611;SDS011;7392;52.078;11.650;2023-02-02T01:28:39;14.00;;;3.67;;
14611;SDS011;7392;52.078;11.650;2023-02-02T01:31:07;12.33;;;3.17;;
14611;SDS011;7392;52.078;11.650;2023-02-02T01:33:36;13.37;;;3.20;;
14611;SDS011;7392;52.078;11.650;2023-02-02T01:36:05;15.67;;;3.17;;
14611;SDS011;7392;52.078;11.650;2023-02-02T01:38:35;15.87;;;3.20;;
14611;SDS011;7392;52.078;11.650;2023-02-02T01:41:03;17.60;;;3.73;;
14611;SDS011;7392;52.078;11.650;2023-02-02T01:46:20;14.57;;;3.57;;
14611;SDS011;7392;52.078;11.650;2023-02-02T01:48:50;10.73;;;3.00;;
14611;SDS011;7392;52.078;11.650;2023-02-02T01:51:21;10.37;;;2.87;;
14611;SDS011;7392;52.078;11.650;2023-02-02T01:53:55;16.47;;;3.43;;
14611;SDS011;7392;52.078;11.650;2023-02-02T01:56:26;18.87;;;3.57;;
14611;SDS011;7392;52.078;11.650;2023-02-02T01:58:58;11.87;;;3.10;;
14611;SDS011;7392;52.078;11.650;2023-02-02T02:01:27;12.27;;;3.10;;
14611;SDS011;7392;52.078;11.650;2023-02-02T02:03:54;9.17;;;2.80;;
14611;SDS011;7392;52.078;11.650;2023-02-02T02:06:24;14.60;;;3.63;;
14611;SDS011;7392;52.078;11.650;2023-02-02T02:08:54;18.83;;;3.73;;
14611;SDS011;7392;52.078;11.650;2023-02-02T02:11:25;13.03;;;3.03;;
14611;SDS011;7392;52.078;11.650;2023-02-02T02:13:54;11.33;;;3.10;;
14611;SDS011;7392;52.078;11.650;2023-02-02T02:16:47;17.43;;;3.17;;
14611;SDS011;7392;52.078;11.650;2023-02-02T02:19:28;14.70;;;3.10;;
14611;SDS011;7392;52.078;11.650;2023-02-02T02:22:39;11.77;;;3.10;;
14611;SDS011;7392;52.078;11.650;2023-02-02T02:25:54;12.67;;;3.27;;
14611;SDS011;7392;52.078;11.650;2023-02-02T02:29:09;17.00;;;3.80;;
14611;SDS011;7392;52.078;11.650;2023-02-02T02:32:01;13.10;;;3.17;;
14611;SDS011;7392;52.078;11.650;2023-02-02T02:34:42;10.93;;;2.37;;
14611;SDS011;7392;52.078;11.650;2023-02-02T02:37:21;14.50;;;3.00;;
14611;SDS011;7392;52.078;11.650;2023-02-02T02:39:58;13.57;;;3.00;;
14611;SDS011;7392;52.078;11.650;2023-02-02T02:42:33;15.03;;;3.47;;
14611;SDS011;7392;52.078;11.650;2023-02-02T02:45:05;18.00;;;3.97;;
14611;SDS011;7392;52.078;11.650;2023-02-02T02:47:37;17.80;;;3.03;;
14611;SDS011;7392;52.078;11.650;2023-02-02T02:50:07;10.83;;;3.10;;
14611;SDS011;7392;52.078;11.650;2023-02-02T02:52:35;15.30;;;3.20;;
14611;SDS011;7392;52.078;11.650;2023-02-02T02:55:05;13.43;;;3.20;;
14611;SDS011;7392;52.078;11.650;2023-02-02T02:57:41;16.13;;;3.20;;
14611;SDS011;7392;52.078;11.650;2023-02-02T03:03:09;14.00;;;3.10;;
14611;SDS011;7392;52.078;11.650;2023-02-02T03:05:45;20.27;;;3.57;;
14611;SDS011;7392;52.078;11.650;2023-02-02T03:08:22;12.60;;;2.83;;
14611;SDS011;7392;52.078;11.650;2023-02-02T03:10:54;10.70;;;2.90;;
14611;SDS011;7392;52.078;11.650;2023-02-02T03:13:22;15.43;;;2.97;;
14611;SDS011;7392;52.078;11.650;2023-02-02T03:15:52;13.07;;;3.60;;
14611;SDS011;7392;52.078;11.650;2023-02-02T03:18:22;13.27;;;3.63;;
14611;SDS011;7392;52.078;11.650;2023-02-02T03:20:53;11.73;;;3.10;;
14611;SDS011;7392;52.078;11.650;2023-02-02T03:23:21;14.03;;;3.40;;
14611;SDS011;7392;52.078;11.650;2023-02-02T03:25:49;14.87;;;3.23;;
14611;SDS011;7392;52.078;11.650;2023-02-02T03:28:17;13.50;;;3.70;;
14611;SDS011;7392;52.078;11.650;2023-02-02T03:30:45;13.43;;;2.77;;
14611;SDS011;7392;52.078;11.650;2023-02-02T03:33:14;15.03;;;2.73;;
14611;SDS011;7392;52.078;11.650;2023-02-02T03:35:45;15.57;;;3.13;;
14611;SDS011;7392;52.078;11.650;2023-02-02T03:38:12;15.13;;;3.33;;
14611;SDS011;7392;52.078;11.650;2023-02-02T03:40:40;13.87;;;3.07;;
14611;SDS011;7392;52.078;11.650;2023-02-02T03:43:08;12.27;;;3.13;;
14611;SDS011;7392;52.078;11.650;2023-02-02T03:45:35;12.17;;;2.80;;
14611;SDS011;7392;52.078;11.650;2023-02-02T03:48:06;13.93;;;3.23;;
14611;SDS011;7392;52.078;11.650;2023-02-02T03:50:33;13.37;;;3.07;;
14611;SDS011;7392;52.078;11.650;2023-02-02T03:53:02;13.70;;;3.30;;
14611;SDS011;7392;52.078;11.650;2023-02-02T03:55:30;13.43;;;3.00;;
14611;SDS011;7392;52.078;11.650;2023-02-02T03:57:58;14.70;;;3.20;;
14611;SDS011;7392;52.078;11.650;2023-02-02T04:00:26;8.57;;;2.80;;
14611;SDS011;7392;52.078;11.650;2023-02-02T04:02:53;11.00;;;2.90;;
14611;SDS011;7392;52.078;11.650;2023-02-02T04:05:21;12.50;;;3.20;;
14611;SDS011;7392;52.078;11.650;2023-02-02T04:07:49;15.43;;;3.30;;
14611;SDS011;7392;52.078;11.650;2023-02-02T04:10:18;21.60;;;3.50;;
14611;SDS011;7392;52.078;11.650;2023-02-02T04:12:46;15.27;;;3.30;;
14611;SDS011;7392;52.078;11.650;2023-02-02T04:15:14;14.20;;;3.13;;
14611;SDS011;7392;52.078;11.650;2023-02-02T04:17:42;13.03;;;3.50;;
14611;SDS011;7392;52.078;11.650;2023-02-02T04:20:10;10.90;;;2.80;;
14611;SDS011;7392;52.078;11.650;2023-02-02T04:22:38;11.30;;;3.03;;
14611;SDS011;7392;52.078;11.650;2023-02-02T04:25:06;15.30;;;3.30;;
14611;SDS011;7392;52.078;11.650;2023-02-02T04:27:35;16.40;;;4.20;;
14611;SDS011;7392;52.078;11.650;2023-02-02T04:30:03;14.00;;;3.17;;
14611;SDS011;7392;52.078;11.650;2023-02-02T04:32:32;11.20;;;2.97;;
14611;SDS011;7392;52.078;11.650;2023-02-02T04:34:59;14.13;;;3.13;;
14611;SDS011;7392;52.078;11.650;2023-02-02T04:37:29;10.00;;;2.80;;
14611;SDS011;7392;52.078;11.650;2023-02-02T04:39:57;13.17;;;3.17;;
14611;SDS011;7392;52.078;11.650;2023-02-02T04:42:24;16.63;;;3.13;;
14611;SDS011;7392;52.078;11.650;2023-02-02T04:44:53;14.17;;;3.27;;
14611;SDS011;7392;52.078;11.650;2023-02-02T04:47:21;13.47;;;3.97;;
14611;SDS011;7392;52.078;11.650;2023-02-02T04:49:49;16.07;;;3.40;;
14611;SDS011;7392;52.078;11.650;2023-02-02T04:52:16;14.73;;;3.07;;
14611;SDS011;7392;52.078;11.650;2023-02-02T04:54:44;12.37;;;3.07;;
14611;SDS011;7392;52.078;11.650;2023-02-02T04:57:11;13.47;;;3.27;;
14611;SDS011;7392;52.078;11.650;2023-02-02T04:59:39;14.30;;;3.57;;
14611;SDS011;7392;52.078;11.650;2023-02-02T05:02:09;11.17;;;3.40;;
14611;SDS011;7392;52.078;11.650;2023-02-02T05:04:36;19.47;;;3.67;;
14611;SDS011;7392;52.078;11.650;2023-02-02T05:07:04;9.57;;;2.33;;
14611;SDS011;7392;52.078;11.650;2023-02-02T05:09:32;17.80;;;3.63;;
14611;SDS011;7392;52.078;11.650;2023-02-02T05:11:59;13.00;;;3.30;;
14611;SDS011;7392;52.078;11.650;2023-02-02T05:14:27;14.90;;;2.83;;
14611;SDS011;7392;52.078;11.650;2023-02-02T05:16:55;16.13;;;3.30;;
14611;SDS011;7392;52.078;11.650;2023-02-02T05:19:24;10.73;;;3.03;;
14611;SDS011;7392;52.078;11.650;2023-02-02T05:21:51;15.87;;;3.27;;
14611;SDS011;7392;52.078;11.650;2023-02-02T05:24:19;11.10;;;3.00;;
14611;SDS011;7392;52.078;11.650;2023-02-02T05:26:47;19.80;;;3.73;;
14611;SDS011;7392;52.078;11.650;2023-02-02T05:29:15;12.30;;;3.03;;
14611;SDS011;7392;52.078;11.650;2023-02-02T05:31:42;12.13;;;2.87;;
14611;SDS011;7392;52.078;11.650;2023-02-02T05:34:10;17.13;;;3.40;;
14611;SDS011;7392;52.078;11.650;2023-02-02T05:36:40;14.37;;;2.90;;
14611;SDS011;7392;52.078;11.650;2023-02-02T05:39:08;18.03;;;3.60;;
14611;SDS011;7392;52.078;11.650;2023-02-02T05:41:35;13.03;;;3.23;;
14611;SDS011;7392;52.078;11.650;2023-02-02T05:44:03;17.27;;;3.20;;
14611;SDS011;7392;52.078;11.650;2023-02-02T05:46:31;16.87;;;3.27;;
14611;SDS011;7392;52.078;11.650;2023-02-02T05:48:59;12.37;;;2.80;;
14611;SDS011;7392;52.078;11.650;2023-02-02T05:51:30;15.43;;;3.30;;
14611;SDS011;7392;52.078;11.650;2023-02-02T05:54:01;19.50;;;3.97;;
14611;SDS011;7392;52.078;11.650;2023-02-02T05:56:29;10.27;;;3.20;;
14611;SDS011;7392;52.078;11.650;2023-02-02T05:58:56;8.87;;;2.63;;
14611;SDS011;7392;52.078;11.650;2023-02-02T06:01:25;11.77;;;3.20;;
14611;SDS011;7392;52.078;11.650;2023-02-02T06:03:53;11.67;;;3.00;;
14611;SDS011;7392;52.078;11.650;2023-02-02T06:06:21;10.50;;;2.97;;
14611;SDS011;7392;52.078;11.650;2023-02-02T06:08:48;11.67;;;2.80;;
14611;SDS011;7392;52.078;11.650;2023-02-02T06:11:17;13.97;;;2.80;;
14611;SDS011;7392;52.078;11.650;2023-02-02T06:13:45;11.97;;;2.93;;
14611;SDS011;7392;52.078;11.650;2023-02-02T06:16:13;16.30;;;3.23;;
14611;SDS011;7392;52.078;11.650;2023-02-02T06:18:41;15.33;;;2.67;;
14611;SDS011;7392;52.078;11.650;2023-02-02T06:21:08;14.77;;;3.17;;
14611;SDS011;7392;52.078;11.650;2023-02-02T06:23:37;12.53;;;3.23;;
14611;SDS011;7392;52.078;11.650;2023-02-02T06:26:10;13.67;;;3.27;;
14611;SDS011;7392;52.078;11.650;2023-02-02T06:28:39;14.43;;;3.10;;
14611;SDS011;7392;52.078;11.650;2023-02-02T06:31:08;14.97;;;3.43;;
14611;SDS011;7392;52.078;11.650;2023-02-02T06:33:37;13.40;;;3.23;;
14611;SDS011;7392;52.078;11.650;2023-02-02T06:36:05;10.87;;;3.00;;
14611;SDS011;7392;52.078;11.650;2023-02-02T06:38:34;8.30;;;2.53;;
14611;SDS011;7392;52.078;11.650;2023-02-02T06:41:01;10.97;;;2.93;;
14611;SDS011;7392;52.078;11.650;2023-02-02T06:43:29;9.30;;;2.87;;
14611;SDS011;7392;52.078;11.650;2023-02-02T06:45:58;14.73;;;3.23;;
14611;SDS011;7392;52.078;11.650;2023-02-02T06:48:26;18.67;;;3.77;;
14611;SDS011;7392;52.078;11.650;2023-02-02T06:50:56;13.97;;;3.10;;
14611;SDS011;7392;52.078;11.650;2023-02-02T06:53:24;12.37;;;3.10;;
14611;SDS011;7392;52.078;11.650;2023-02-02T06:55:52;15.03;;;2.70;;
14611;SDS011;7392;52.078;11.650;2023-02-02T06:58:20;11.93;;;2.50;;
14611;SDS011;7392;52.078;11.650;2023-02-02T07:00:48;12.30;;;2.80;;
14611;SDS011;7392;52.078;11.650;2023-02-02T07:03:17;13.40;;;3.53;;
14611;SDS011;7392;52.078;11.650;2023-02-02T07:05:46;9.90;;;2.77;;
14611;SDS011;7392;52.078;11.650;2023-02-02T07:08:14;16.90;;;3.53;;
14611;SDS011;7392;52.078;11.650;2023-02-02T07:10:42;18.23;;;3.13;;
14611;SDS011;7392;52.078;11.650;2023-02-02T07:13:29;14.77;;;3.80;;
14611;SDS011;7392;52.078;11.650;2023-02-02T07:15:57;10.00;;;3.00;;
14611;SDS011;7392;52.078;11.650;2023-02-02T07:18:27;8.67;;;2.90;;
14611;SDS011;7392;52.078;11.650;2023-02-02T07:20:56;17.13;;;3.83;;
14611;SDS011;7392;52.078;11.650;2023-02-02T07:23:24;12.87;;;3.10;;
14611;SDS011;7392;52.078;11.650;2023-02-02T07:25:59;21.10;;;3.60;;
14611;SDS011;7392;52.078;11.650;2023-02-02T07:28:27;16.90;;;4.07;;
14611;SDS011;7392;52.078;11.650;2023-02-02T07:30:55;16.17;;;4.00;;
14611;SDS011;7392;52.078;11.650;2023-02-02T07:33:23;15.90;;;3.87;;
14611;SDS011;7392;52.078;11.650;2023-02-02T07:35:52;13.10;;;3.00;;
14611;SDS011;7392;52.078;11.650;2023-02-02T07:38:20;15.87;;;3.47;;
14611;SDS011;7392;52.078;11.650;2023-02-02T07:40:48;16.27;;;4.10;;
14611;SDS011;7392;52.078;11.650;2023-02-02T07:43:15;15.87;;;3.57;;
14611;SDS011;7392;52.078;11.650;2023-02-02T07:45:44;15.63;;;3.47;;
14611;SDS011;7392;52.078;11.650;2023-02-02T07:48:12;10.00;;;2.53;;
14611;SDS011;7392;52.078;11.650;2023-02-02T07:50:39;22.63;;;4.17;;
14611;SDS011;7392;52.078;11.650;2023-02-02T07:53:08;12.10;;;3.73;;
14611;SDS011;7392;52.078;11.650;2023-02-02T07:55:36;16.47;;;3.70;;
14611;SDS011;7392;52.078;11.650;2023-02-02T07:58:04;16.10;;;2.87;;
14611;SDS011;7392;52.078;11.650;2023-02-02T08:00:33;12.47;;;3.23;;
14611;SDS011;7392;52.078;11.650;2023-02-02T08:03:01;16.47;;;3.27;;
14611;SDS011;7392;52.078;11.650;2023-02-02T08:05:28;13.20;;;3.10;;
14611;SDS011;7392;52.078;11.650;2023-02-02T08:07:57;15.50;;;4.17;;
14611;SDS011;7392;52.078;11.650;2023-02-02T08:10:26;11.17;;;3.30;;
14611;SDS011;7392;52.078;11.650;2023-02-02T08:12:53;13.90;;;2.90;;
14611;SDS011;7392;52.078;11.650;2023-02-02T08:15:21;15.53;;;3.87;;
14611;SDS011;7392;52.078;11.650;2023-02-02T08:17:49;12.63;;;3.37;;
14611;SDS011;7392;52.078;11.650;2023-02-02T08:20:17;14.87;;;3.37;;
14611;SDS011;7392;52.078;11.650;2023-02-02T08:22:45;12.10;;;3.17;;
14611;SDS011;7392;52.078;11.650;2023-02-02T08:25:13;15.07;;;3.17;;
14611;SDS011;7392;52.078;11.650;2023-02-02T08:27:42;19.07;;;4.13;;
14611;SDS011;7392;52.078;11.650;2023-02-02T08:30:10;12.13;;;3.30;;
14611;SDS011;7392;52.078;11.650;2023-02-02T08:32:38;13.27;;;2.87;;
14611;SDS011;7392;52.078;11.650;2023-02-02T08:35:06;12.17;;;3.00;;
14611;SDS011;7392;52.078;11.650;2023-02-02T08:37:34;15.53;;;3.70;;
14611;SDS011;7392;52.078;11.650;2023-02-02T08:40:02;14.23;;;4.03;;
14611;SDS011;7392;52.078;11.650;2023-02-02T08:42:30;16.73;;;3.47;;
14611;SDS011;7392;52.078;11.650;2023-02-02T08:44:59;10.30;;;3.10;;
14611;SDS011;7392;52.078;11.650;2023-02-02T08:47:47;13.37;;;3.43;;
14611;SDS011;7392;52.078;11.650;2023-02-02T08:50:30;13.40;;;3.40;;
14611;SDS011;7392;52.078;11.650;2023-02-02T08:52:58;19.87;;;4.10;;
14611;SDS011;7392;52.078;11.650;2023-02-02T08:55:25;15.73;;;3.70;;
14611;SDS011;7392;52.078;11.650;2023-02-02T08:57:53;15.63;;;3.40;;
14611;SDS011;7392;52.078;11.650;2023-02-02T09:00:22;14.73;;;3.70;;
14611;SDS011;7392;52.078;11.650;2023-02-02T09:02:50;14.37;;;3.17;;
14611;SDS011;7392;52.078;11.650;2023-02-02T09:05:17;14.63;;;3.23;;
14611;SDS011;7392;52.078;11.650;2023-02-02T09:07:45;19.57;;;3.87;;
14611;SDS011;7392;52.078;11.650;2023-02-02T09:10:14;16.17;;;3.70;;
14611;SDS011;7392;52.078;11.650;2023-02-02T09:12:42;15.00;;;2.87;;
14611;SDS011;7392;52.078;11.650;2023-02-02T09:15:10;19.57;;;4.40;;
14611;SDS011;7392;52.078;11.650;2023-02-02T09:17:40;20.10;;;4.30;;
14611;SDS011;7392;52.078;11.650;2023-02-02T09:20:08;12.33;;;2.67;;
14611;SDS011;7392;52.078;11.650;2023-02-02T09:22:36;18.57;;;3.50;;
14611;SDS011;7392;52.078;11.650;2023-02-02T09:25:04;13.43;;;2.90;;
14611;SDS011;7392;52.078;11.650;2023-02-02T09:27:35;14.13;;;3.40;;
14611;SDS011;7392;52.078;11.650;2023-02-02T09:30:03;12.77;;;2.93;;
14611;SDS011;7392;52.078;11.650;2023-02-02T09:32:32;16.40;;;3.33;;
14611;SDS011;7392;52.078;11.650;2023-02-02T09:35:01;12.13;;;3.20;;
14611;SDS011;7392;52.078;11.650;2023-02-02T09:37:28;21.27;;;4.30;;
14611;SDS011;7392;52.078;11.650;2023-02-02T09:39:56;11.40;;;3.13;;
14611;SDS011;7392;52.078;11.650;2023-02-02T09:42:27;16.43;;;3.70;;
14611;SDS011;7392;52.078;11.650;2023-02-02T09:45:07;15.30;;;3.60;;
14611;SDS011;7392;52.078;11.650;2023-02-02T09:47:50;12.13;;;3.37;;
14611;SDS011;7392;52.078;11.650;2023-02-02T09:50:33;16.53;;;3.73;;
14611;SDS011;7392;52.078;11.650;2023-02-02T09:53:08;14.27;;;3.20;;
14611;SDS011;7392;52.078;11.650;2023-02-02T09:55:41;17.20;;;4.03;;
14611;SDS011;7392;52.078;11.650;2023-02-02T09:58:13;15.67;;;4.13;;
14611;SDS011;7392;52.078;11.650;2023-02-02T10:00:45;12.87;;;3.70;;
14611;SDS011;7392;52.078;11.650;2023-02-02T10:03:20;16.40;;;3.50;;
14611;SDS011;7392;52.078;11.650;2023-02-02T10:05:56;11.13;;;3.37;;
14611;SDS011;7392;52.078;11.650;2023-02-02T10:08:31;15.07;;;3.97;;
14611;SDS011;7392;52.078;11.650;2023-02-02T10:11:04;16.57;;;3.87;;
14611;SDS011;7392;52.078;11.650;2023-02-02T10:13:53;15.70;;;3.40;;
14611;SDS011;7392;52.078;11.650;2023-02-02T10:16:26;14.87;;;3.60;;
14611;SDS011;7392;52.078;11.650;2023-02-02T10:18:56;11.30;;;3.00;;
14611;SDS011;7392;52.078;11.650;2023-02-02T10:21:31;12.53;;;3.00;;
14611;SDS011;7392;52.078;11.650;2023-02-02T10:24:06;6.67;;;2.53;;
14611;SDS011;7392;52.078;11.650;2023-02-02T10:26:45;15.30;;;2.97;;
14611;SDS011;7392;52.078;11.650;2023-02-02T10:29:15;12.80;;;3.13;;
14611;SDS011;7392;52.078;11.650;2023-02-02T10:31:49;12.53;;;3.47;;
14611;SDS011;7392;52.078;11.650;2023-02-02T10:34:30;12.37;;;2.70;;
14611;SDS011;7392;52.078;11.650;2023-02-02T10:37:20;15.67;;;3.37;;
14611;SDS011;7392;52.078;11.650;2023-02-02T10:39:56;7.93;;;2.57;;
14611;SDS011;7392;52.078;11.650;2023-02-02T10:42:42;13.10;;;3.03;;
14611;SDS011;7392;52.078;11.650;2023-02-02T10:45:36;10.43;;;2.83;;
14611;SDS011;7392;52.078;11.650;2023-02-02T10:48:10;11.60;;;2.90;;
14611;SDS011;7392;52.078;11.650;2023-02-02T10:50:41;11.30;;;2.77;;
14611;SDS011;7392;52.078;11.650;2023-02-02T10:53:14;11.23;;;2.40;;
14611;SDS011;7392;52.078;11.650;2023-02-02T10:55:44;9.57;;;3.03;;
14611;SDS011;7392;52.078;11.650;2023-02-02T10:58:20;9.93;;;2.80;;
14611;SDS011;7392;52.078;11.650;2023-02-02T11:00:52;7.80;;;2.27;;
14611;SDS011;7392;52.078;11.650;2023-02-02T11:03:24;10.80;;;2.40;;
14611;SDS011;7392;52.078;11.650;2023-02-02T11:05:55;7.97;;;2.47;;
14611;SDS011;7392;52.078;11.650;2023-02-02T11:08:43;11.07;;;2.90;;
14611;SDS011;7392;52.078;11.650;2023-02-02T11:11:15;12.10;;;2.57;;
14611;SDS011;7392;52.078;11.650;2023-02-02T11:13:47;12.27;;;2.97;;
14611;SDS011;7392;52.078;11.650;2023-02-02T11:16:21;10.13;;;2.33;;
14611;SDS011;7392;52.078;11.650;2023-02-02T11:19:01;6.17;;;2.00;;
14611;SDS011;7392;52.078;11.650;2023-02-02T11:21:49;10.40;;;2.83;;
14611;SDS011;7392;52.078;11.650;2023-02-02T11:24:23;14.27;;;2.63;;
14611;SDS011;7392;52.078;11.650;2023-02-02T11:26:53;8.40;;;2.30;;
14611;SDS011;7392;52.078;11.650;2023-02-02T11:29:25;9.97;;;2.73;;
14611;SDS011;7392;52.078;11.650;2023-02-02T11:31:55;14.67;;;3.10;;
14611;SDS011;7392;52.078;11.650;2023-02-02T11:34:24;8.93;;;2.40;;
14611;SDS011;7392;52.078;11.650;2023-02-02T11:36:58;10.57;;;2.70;;
14611;SDS011;7392;52.078;11.650;2023-02-02T11:39:29;12.20;;;3.20;;
14611;SDS011;7392;52.078;11.650;2023-02-02T11:41:58;8.70;;;2.70;;
14611;SDS011;7392;52.078;11.650;2023-02-02T11:44:28;8.40;;;2.60;;
14611;SDS011;7392;52.078;11.650;2023-02-02T11:46:59;10.73;;;2.80;;
14611;SDS011;7392;52.078;11.650;2023-02-02T11:49:36;8.43;;;2.83;;
14611;SDS011;7392;52.078;11.650;2023-02-02T11:52:13;9.17;;;2.33;;
14611;SDS011;7392;52.078;11.650;2023-02-02T11:54:46;10.77;;;2.33;;
14611;SDS011;7392;52.078;11.650;2023-02-02T11:57:17;6.97;;;2.20;;
14611;SDS011;7392;52.078;11.650;2023-02-02T11:59:47;8.97;;;2.47;;
14611;SDS011;7392;52.078;11.650;2023-02-02T12:02:21;8.50;;;2.53;;
14611;SDS011;7392;52.078;11.650;2023-02-02T12:04:51;7.30;;;2.30;;
14611;SDS011;7392;52.078;11.650;2023-02-02T12:07:22;6.50;;;2.00;;
14611;SDS011;7392;52.078;11.650;2023-02-02T12:09:56;6.73;;;2.30;;
14611;SDS011;7392;52.078;11.650;2023-02-02T12:12:30;6.10;;;1.83;;
14611;SDS011;7392;52.078;11.650;2023-02-02T12:15:10;9.33;;;2.40;;
14611;SDS011;7392;52.078;11.650;2023-02-02T12:17:51;9.77;;;2.30;;
14611;SDS011;7392;52.078;11.650;2023-02-02T12:20:26;10.57;;;1.87;;
14611;SDS011;7392;52.078;11.650;2023-02-02T12:23:16;14.27;;;2.63;;
14611;SDS011;7392;52.078;11.650;2023-02-02T12:29:03;5.30;;;2.03;;
14611;SDS011;7392;52.078;11.650;2023-02-02T12:32:03;6.57;;;1.73;;
14611;SDS011;7392;52.078;11.650;2023-02-02T12:34:44;8.80;;;2.17;;
14611;SDS011;7392;52.078;11.650;2023-02-02T12:37:25;7.33;;;2.30;;
14611;SDS011;7392;52.078;11.650;2023-02-02T12:40:13;8.13;;;1.90;;
14611;SDS011;7392;52.078;11.650;2023-02-02T12:42:57;7.10;;;2.03;;
14611;SDS011;7392;52.078;11.650;2023-02-02T12:45:38;8.57;;;2.13;;
14611;SDS011;7392;52.078;11.650;2023-02-02T12:48:24;5.23;;;2.00;;
14611;SDS011;7392;52.078;11.650;2023-02-02T12:51:04;8.00;;;2.23;;
14611;SDS011;7392;52.078;11.650;2023-02-02T12:53:56;9.17;;;2.57;;
14611;SDS011;7392;52.078;11.650;2023-02-02T12:57:01;8.53;;;2.20;;
14611;SDS011;7392;52.078;11.650;2023-02-02T12:59:48;7.63;;;2.23;;
14611;SDS011;7392;52.078;11.650;2023-02-02T13:02:25;6.30;;;1.97;;
14611;SDS011;7392;52.078;11.650;2023-02-02T13:05:03;5.67;;;2.03;;
14611;SDS011;7392;52.078;11.650;2023-02-02T13:07:49;6.90;;;2.20;;
14611;SDS011;7392;52.078;11.650;2023-02-02T13:10:22;6.37;;;2.13;;
14611;SDS011;7392;52.078;11.650;2023-02-02T13:12:56;6.70;;;2.13;;
14611;SDS011;7392;52.078;11.650;2023-02-02T13:15:30;5.93;;;1.87;;
14611;SDS011;7392;52.078;11.650;2023-02-02T13:18:02;4.60;;;1.83;;
14611;SDS011;7392;52.078;11.650;2023-02-02T13:20:35;3.93;;;1.60;;
14611;SDS011;7392;52.078;11.650;2023-02-02T13:23:07;7.87;;;1.83;;
14611;SDS011;7392;52.078;11.650;2023-02-02T13:25:39;6.03;;;1.93;;
14611;SDS011;7392;52.078;11.650;2023-02-02T13:28:16;5.33;;;1.70;;
14611;SDS011;7392;52.078;11.650;2023-02-02T13:30:53;5.93;;;1.97;;
14611;SDS011;7392;52.078;11.650;2023-02-02T13:33:26;8.37;;;1.90;;
14611;SDS011;7392;52.078;11.650;2023-02-02T13:35:59;4.40;;;1.70;;
14611;SDS011;7392;52.078;11.650;2023-02-02T13:38:29;4.57;;;1.40;;
14611;SDS011;7392;52.078;11.650;2023-02-02T13:40:59;6.73;;;1.63;;
14611;SDS011;7392;52.078;11.650;2023-02-02T13:43:36;7.47;;;1.97;;
14611;SDS011;7392;52.078;11.650;2023-02-02T13:46:14;5.03;;;1.80;;
14611;SDS011;7392;52.078;11.650;2023-02-02T13:48:52;4.67;;;2.10;;
14611;SDS011;7392;52.078;11.650;2023-02-02T13:57:51;4.27;;;1.70;;
14611;SDS011;7392;52.078;11.650;2023-02-02T14:00:32;7.37;;;2.00;;
14611;SDS011;7392;52.078;11.650;2023-02-02T14:03:04;4.77;;;1.70;;
14611;SDS011;7392;52.078;11.650;2023-02-02T14:06:00;4.47;;;1.57;;
14611;SDS011;7392;52.078;11.650;2023-02-02T14:08:30;5.03;;;1.80;;
14611;SDS011;7392;52.078;11.650;2023-02-02T14:10:58;5.77;;;1.83;;
14611;SDS011;7392;52.078;11.650;2023-02-02T14:13:28;8.97;;;1.87;;
14611;SDS011;7392;52.078;11.650;2023-02-02T14:16:20;8.33;;;2.00;;
14611;SDS011;7392;52.078;11.650;2023-02-02T14:18:52;8.13;;;2.43;;
14611;SDS011;7392;52.078;11.650;2023-02-02T14:24:37;5.93;;;2.00;;
14611;SDS011;7392;52.078;11.650;2023-02-02T14:30:17;6.47;;;2.10;;
14611;SDS011;7392;52.078;11.650;2023-02-02T14:32:48;8.27;;;2.23;;
14611;SDS011;7392;52.078;11.650;2023-02-02T14:38:32;3.37;;;1.60;;
14611;SDS011;7392;52.078;11.650;2023-02-02T14:41:15;5.43;;;1.93;;
14611;SDS011;7392;52.078;11.650;2023-02-02T14:44:08;3.40;;;1.23;;
14611;SDS011;7392;52.078;11.650;2023-02-02T14:46:36;4.30;;;1.10;;
14611;SDS011;7392;52.078;11.650;2023-02-02T14:49:06;3.47;;;1.40;;
14611;SDS011;7392;52.078;11.650;2023-02-02T14:51:50;4.10;;;1.30;;
14611;SDS011;7392;52.078;11.650;2023-02-02T14:54:23;1.80;;;1.30;;
14611;SDS011;7392;52.078;11.650;2023-02-02T14:56:54;2.33;;;1.50;;
14611;SDS011;7392;52.078;11.650;2023-02-02T14:59:26;2.53;;;1.43;;
14611;SDS011;7392;52.078;11.650;2023-02-02T15:02:00;3.70;;;1.73;;
14611;SDS011;7392;52.078;11.650;2023-02-02T15:04:35;5.17;;;2.20;;
14611;SDS011;7392;52.078;11.650;2023-02-02T15:10:11;2.60;;;1.50;;
14611;SDS011;7392;52.078;11.650;2023-02-02T15:12:39;2.97;;;1.40;;
14611;SDS011;7392;52.078;11.650;2023-02-02T15:15:14;4.60;;;1.43;;
14611;SDS011;7392;52.078;11.650;2023-02-02T15:20:35;3.43;;;1.43;;
14611;SDS011;7392;52.078;11.650;2023-02-02T15:23:15;3.80;;;1.40;;
14611;SDS011;7392;52.078;11.650;2023-02-02T15:25:51;2.80;;;1.57;;
14611;SDS011;7392;52.078;11.650;2023-02-02T15:28:23;4.70;;;2.20;;
14611;SDS011;7392;52.078;11.650;2023-02-02T15:30:59;3.97;;;1.70;;
14611;SDS011;7392;52.078;11.650;2023-02-02T15:33:32;4.43;;;2.27;;
14611;SDS011;7392;52.078;11.650;2023-02-02T15:36:08;4.87;;;1.97;;
14611;SDS011;7392;52.078;11.650;2023-02-02T15:38:40;5.07;;;2.20;;
14611;SDS011;7392;52.078;11.650;2023-02-02T15:41:12;2.97;;;1.97;;